Burt, IA (50522)

8:02 AM CST on February 25, 2017 (GMT -0600)
ME0342 | | Change Station
Active Advisory: Special Statement

Elev 1233 ft 43.16 °N, 94.36 °W | Updated 34 minutes ago

Partly Cloudy
Partly Cloudy
11.0 °F
Feels Like 11 °F
N
0.0
Wind Variable Wind from NW
Gusts 0.0 mph

Today
High -- | Low -- °F
--% Chance of Precip.
Yesterday
High -- | Low -- °F
Precip. -- in
Pressure 30.00 in
Visibility 0.5 miles
Clouds
Windchill 11 °F
Dew Point 8 °F
Humidity 87%
Rainfall 0.09 in
Snow Depth Not available.
6:59 AM 6:01 PM
Waning Crescent, 1% visible
METAR KAXA 251355Z AUTO 32015KT 1/2SM -SN VV005 M10/M13 A3000 RMK AO2 VIS 1/4V5
Pressure 30.00 in
Visibility 0.5 miles
Clouds
Windchill 11 °F
Dew Point 8 °F
Humidity 87%
Rainfall 0.09 in
Snow Depth Not available.
6:59 AM 6:01 PM
Waning Crescent, 1% visible
METAR KAXA 251355Z AUTO 32015KT 1/2SM -SN VV005 M10/M13 A3000 RMK AO2 VIS 1/4V5

Get Your Daily Forecast Email!

Thanks for signing up!

Be on the lookout for a verification email in your inbox.

You'll start receiving the daily forecast at 8 AM.

×

10-Day Weather Forecast

Almanac

Astronomy

Feb. 25, 2017 Rise Set
Actual Time
Civil Twilight
Nautical Twilight
Astronomical Twilight
Moon
Length of Visible Light
Length of Day
Tomorrow will be .
, % of the Moon is Illuminated

Today's Extremes

State Highs State Lows

Community

WunderPhotos

Upload Photos

1,962,540 photos uploaded!

WunderBlog® & News

Nearby

Air Quality

  Air Quality AQ Index Pollutant
Not available.

Snow Depth

Station Depth Elevation

Earthquake Activity

City Distance Mag. Time & Date
Minimum magnitude displayed is 2.5.

Coastal Water Temperatures

Place Temperature

Stations

Nearby Weather Stations

Station Location Temp. Windchill Dew Point Humidity Wind Precip. Elev Updated Type
                   

Watches & Warnings

Special Statement
Issued: 5:44 AM CST Feb. 25, 2017 – National Weather Service

... Some roads remain icy and snow covered early this morning...

Although the precipitation ended overnight, driving conditions
remain hazardous in spots early this morning. Some roads are still
partly to mostly covered in ice or snow, along with shallow
blowing snow in open areas. Motorists and pedestrians are urged to
maintain awareness for slick spots and proceed cautiously when
venturing out this morning.


Small

544 am CST Sat Feb 25 2017

... Some roads remain icy and snow covered early this morning...

Although the precipitation ended overnight, driving conditions
remain hazardous in spots early this morning. Some roads are still
partly to mostly covered in ice or snow, along with shallow
blowing snow in open areas. Motorists and pedestrians are urged to
maintain awareness for slick spots and proceed cautiously when
venturing out this morning.


Small